Terminal Aerodrome Forecast
Issued by NWS Charleston, WV

Current Version | Previous Version | Text Only | Print | Product List | Glossary Off
Versions: 1 2 3 4 5 6 7 8 9 10 11 12 13 14 15 16 17 18 19 20 21 22 23 24

572
FTUS41 KRLX 200232 AAA
TAFHTS
TAF AMD
KHTS 200232Z 2003/2024 VRB02KT P6SM SCT020
      TEMPO 2004/2005 5SM BR
     FM200500 00000KT 4SM BR SCT015
     FM200700 00000KT 1SM BR BKN001
     FM200900 00000KT 1/4SM FG VV001
     FM201300 00000KT 1SM BR BKN001
     FM201500 00000KT P6SM SCT035
     FM201700 VRB03KT P6SM FEW200=

USA.gov is the U.S. government's official web portal to all federal, state and local government web resources and services.